Time;durP1;ratioP1;P1;durP2;ratioP2;P2;SDS_P1;SDS_P2;PMS_P1;PMS_P2;Temp;Humidity;BMP_temperature;BMP_pressure;BME280_temperature;BME280_humidity;BME280_pressure;Samples;Min_cycle;Max_cycle;Signal;HPM_P1;HPM_P2
2021/01/29 00:01:47;;;;;;;1.70;1.60;;;-1.20;99.90;;;;;;4860991;29;20398;-87
2021/01/29 00:04:13;;;;;;;1.55;1.45;;;-1.20;99.90;;;;;;4860762;29;20792;-84
2021/01/29 00:06:39;;;;;;;1.63;1.52;;;-1.30;99.90;;;;;;4858205;29;20406;-84
2021/01/29 00:09:05;;;;;;;1.67;1.57;;;-1.30;99.90;;;;;;4865575;29;20404;-89
2021/01/29 00:11:30;;;;;;;1.70;1.60;;;-1.30;99.90;;;;;;4865174;29;20437;-87
2021/01/29 00:13:56;;;;;;;1.58;1.48;;;-1.30;99.90;;;;;;4864542;29;20458;-90
2021/01/29 00:16:22;;;;;;;1.90;1.70;;;-1.30;99.90;;;;;;4864943;29;20409;-90
2021/01/29 00:18:48;;;;;;;1.73;1.55;;;-1.30;99.90;;;;;;4865634;29;20406;-88
2021/01/29 00:21:14;;;;;;;3.00;1.88;;;-1.20;99.90;;;;;;4861267;29;20411;-86
2021/01/29 00:23:40;;;;;;;1.75;1.65;;;-1.40;99.90;;;;;;4860219;29;20418;-87
2021/01/29 00:26:05;;;;;;;2.00;1.80;;;-1.40;99.90;;;;;;4861846;29;20415;-84
2021/01/29 00:28:31;;;;;;;1.93;1.73;;;-1.40;99.90;;;;;;4878050;29;20402;-86
2021/01/29 00:30:57;;;;;;;1.60;1.50;;;-1.40;99.90;;;;;;4891946;29;20518;-85
2021/01/29 00:33:24;;;;;;;1.90;1.73;;;-1.40;99.90;;;;;;4860997;29;20933;-86
2021/01/29 00:35:50;;;;;;;1.98;1.77;;;-1.40;99.90;;;;;;4856538;29;20529;-87
2021/01/29 00:38:16;;;;;;;1.90;1.80;;;-1.40;99.90;;;;;;4859625;29;20446;-83
2021/01/29 00:40:42;;;;;;;2.53;2.00;;;-1.50;99.90;;;;;;4858924;29;20426;-83
2021/01/29 00:43:08;;;;;;;2.80;2.20;;;-1.60;99.90;;;;;;4861417;29;20460;-86
2021/01/29 00:45:36;;;;;;;2.28;1.90;;;-1.50;99.90;;;;;;4874804;29;20418;-87
2021/01/29 00:48:03;;;;;;;1.80;1.70;;;-1.70;99.90;;;;;;4863823;29;20410;-87
2021/01/29 00:50:29;;;;;;;2.60;1.88;;;-1.70;99.90;;;;;;4860624;29;20519;-88
2021/01/29 00:52:54;;;;;;;3.35;1.80;;;-1.80;99.90;;;;;;4875349;29;20410;-84
2021/01/29 00:55:21;;;;;;;1.60;1.50;;;-1.70;99.90;;;;;;4852963;29;20430;-85
2021/01/29 00:57:54;;;;;;;1.83;1.73;;;-1.90;99.90;;;;;;4853260;29;20402;-82
2021/01/29 01:00:43;;;;;;;2.22;1.80;;;-1.80;99.90;;;;;;4855532;29;20492;-82
2021/01/29 01:03:16;;;;;;;2.00;1.80;;;-1.90;99.90;;;;;;4853316;29;20402;-81
2021/01/29 01:05:43;;;;;;;1.80;1.70;;;-1.80;99.90;;;;;;4867867;29;20433;-83
2021/01/29 01:08:13;;;;;;;1.80;1.70;;;-2.00;99.90;;;;;;4846459;29;20409;-86
2021/01/29 01:11:02;;;;;;;2.07;1.87;;;-1.90;99.90;;;;;;4866956;29;20451;-86
2021/01/29 01:13:46;;;;;;;1.80;1.70;;;-1.90;99.90;;;;;;4853472;29;20893;-85
2021/01/29 01:16:44;;;;;;;2.22;1.80;;;-1.90;99.90;;;;;;4863143;29;20391;-85
2021/01/29 01:19:36;;;;;;;1.70;1.60;;;-1.90;99.90;;;;;;4875452;29;20434;-89
2021/01/29 01:22:05;;;;;;;1.73;1.63;;;-2.00;99.90;;;;;;4861681;29;20407;-90
2021/01/29 01:24:47;;;;;;;1.75;1.65;;;-2.00;99.90;;;;;;4864768;29;20414;-90
2021/01/29 01:27:17;;;;;;;1.95;1.75;;;-1.90;99.90;;;;;;4859449;29;20431;-88
2021/01/29 01:30:05;;;;;;;1.60;1.50;;;-2.00;99.90;;;;;;4874511;29;20662;-89
2021/01/29 01:32:31;;;;;;;1.80;1.70;;;-2.00;99.90;;;;;;4853303;29;20442;-86
2021/01/29 01:35:17;;;;;;;2.10;1.80;;;-2.00;99.90;;;;;;4853715;29;20418;-89
2021/01/29 01:37:42;;;;;;;1.77;1.67;;;-2.00;99.90;;;;;;4878205;29;20412;-87
2021/01/29 01:40:27;;;;;;;1.60;1.50;;;-2.00;99.90;;;;;;4879296;29;20409;-86
2021/01/29 01:42:53;;;;;;;2.20;2.00;;;-2.10;99.90;;;;;;4890413;29;20408;-89
2021/01/29 01:45:28;;;;;;;1.63;1.50;;;-2.00;99.90;;;;;;4889923;29;20521;-85
2021/01/29 01:48:07;;;;;;;1.60;1.50;;;-2.00;99.90;;;;;;4890236;29;20748;-84
2021/01/29 01:50:57;;;;;;;2.00;1.75;;;-2.00;99.90;;;;;;4876263;29;20417;-86
2021/01/29 01:53:25;;;;;;;2.15;1.60;;;-2.00;99.90;;;;;;4885892;29;21156;-85
2021/01/29 01:56:13;;;;;;;1.65;1.55;;;-2.00;99.90;;;;;;4868694;29;20410;-83
2021/01/29 01:59:03;;;;;;;1.83;1.73;;;-2.00;99.90;;;;;;4870651;29;20949;-85
2021/01/29 02:01:37;;;;;;;1.70;1.60;;;-2.00;99.90;;;;;;4871789;29;20417;-87
2021/01/29 02:04:30;;;;;;;1.50;1.40;;;-2.00;99.90;;;;;;4871022;29;20418;-82
2021/01/29 02:07:37;;;;;;;1.77;1.67;;;-2.00;99.90;;;;;;4867222;29;20433;-86
2021/01/29 02:10:22;;;;;;;1.90;1.80;;;-2.00;99.90;;;;;;4866510;29;20425;-83
2021/01/29 02:12:48;;;;;;;2.20;2.00;;;-2.00;99.90;;;;;;4865943;29;20435;-87
2021/01/29 02:15:20;;;;;;;1.95;1.85;;;-1.90;99.90;;;;;;4867341;29;20413;-84
2021/01/29 02:18:08;;;;;;;3.30;1.67;;;-1.80;99.90;;;;;;4865296;29;20925;-83
2021/01/29 02:20:44;;;;;;;1.73;1.63;;;-2.00;99.90;;;;;;4882299;29;20404;-81
2021/01/29 02:23:45;;;;;;;2.83;2.10;;;-1.90;99.90;;;;;;4878465;29;20468;-85
2021/01/29 02:26:54;;;;;;;2.75;2.03;;;-1.90;99.90;;;;;;4888454;29;21138;-84
2021/01/29 02:29:42;;;;;;;1.85;1.75;;;-1.90;99.90;;;;;;4868773;29;20425;-82
2021/01/29 02:32:47;;;;;;;2.00;1.80;;;-1.90;99.90;;;;;;4868973;29;20401;-84
2021/01/29 02:35:19;;;;;;;2.58;1.83;;;-1.90;99.90;;;;;;4884345;29;20412;-82
2021/01/29 02:38:15;;;;;;;2.30;1.70;;;-1.90;99.90;;;;;;4868480;29;20401;-87
2021/01/29 02:41:02;;;;;;;1.98;1.77;;;-1.80;99.90;;;;;;4884376;29;20392;-83
2021/01/29 02:43:46;;;;;;;2.20;2.00;;;-1.80;99.90;;;;;;4868970;29;20401;-83
2021/01/29 02:47:00;;;;;;;2.58;1.67;;;-1.80;99.90;;;;;;4852048;29;20921;-87
2021/01/29 02:50:03;;;;;;;1.63;1.52;;;-1.70;99.90;;;;;;4868173;29;20400;-82
2021/01/29 02:53:22;;;;;;;2.10;1.60;;;-1.70;99.90;;;;;;4798346;29;20415;-88
2021/01/29 02:56:20;;;;;;;1.90;1.80;;;-1.70;99.90;;;;;;4807906;29;20416;-82
2021/01/29 02:59:38;;;;;;;2.25;2.05;;;-1.70;99.90;;;;;;4871344;29;20412;-85
2021/01/29 03:02:46;;;;;;;2.80;2.42;;;-1.60;99.90;;;;;;4841299;29;20402;-83
2021/01/29 03:05:18;;;;;;;2.33;2.13;;;-1.60;99.90;;;;;;4834427;29;20422;-84
2021/01/29 03:07:53;;;;;;;2.20;2.00;;;-1.60;99.90;;;;;;4848974;29;20417;-82
2021/01/29 03:10:56;;;;;;;2.90;2.50;;;-1.60;99.90;;;;;;4871218;29;20404;-86
2021/01/29 03:14:13;;;;;;;3.37;2.50;;;-1.60;99.90;;;;;;4873455;29;20421;-82
2021/01/29 03:17:09;;;;;;;2.95;2.33;;;-1.60;99.90;;;;;;4820308;29;20534;-87
2021/01/29 03:20:01;;;;;;;3.25;2.50;;;-1.70;99.90;;;;;;4852325;29;20422;-82
2021/01/29 03:22:56;;;;;;;2.60;2.40;;;-1.70;99.90;;;;;;4869822;29;20774;-82
2021/01/29 03:25:43;;;;;;;3.40;2.67;;;-1.70;99.90;;;;;;4870972;29;20418;-85
2021/01/29 03:28:31;;;;;;;2.97;2.70;;;-1.60;99.90;;;;;;4871161;29;20405;-85
2021/01/29 03:31:15;;;;;;;3.90;2.80;;;-1.60;99.90;;;;;;4869198;29;20404;-82
2021/01/29 03:34:22;;;;;;;2.92;2.63;;;-1.60;99.90;;;;;;4869763;29;20416;-82
2021/01/29 03:37:22;;;;;;;2.47;2.28;;;-1.60;99.90;;;;;;4868665;29;20405;-83
2021/01/29 03:40:07;;;;;;;4.07;2.67;;;-1.60;99.90;;;;;;4871128;29;20404;-82
2021/01/29 03:43:27;;;;;;;2.55;2.35;;;-1.60;99.90;;;;;;4869875;29;20395;-83
2021/01/29 03:46:41;;;;;;;3.05;2.50;;;-1.50;99.90;;;;;;4881323;29;20476;-84
2021/01/29 03:49:31;;;;;;;2.73;2.53;;;-1.50;99.90;;;;;;4882452;29;20412;-82
2021/01/29 03:52:24;;;;;;;2.67;2.47;;;-1.50;99.90;;;;;;4882775;29;20413;-86
2021/01/29 03:55:12;;;;;;;4.40;2.83;;;-1.50;99.90;;;;;;4871712;29;20405;-86
2021/01/29 03:58:50;;;;;;;2.72;2.53;;;-1.50;99.90;;;;;;4892824;29;20408;-84
2021/01/29 04:01:58;;;;;;;3.70;2.30;;;-1.50;99.90;;;;;;4850924;29;20450;-81
2021/01/29 04:05:01;;;;;;;3.60;2.70;;;-1.50;99.90;;;;;;4886692;29;20424;-80
2021/01/29 04:07:56;;;;;;;2.58;2.17;;;-1.50;99.90;;;;;;4885819;29;20419;-83
2021/01/29 04:10:58;;;;;;;2.63;2.30;;;-1.50;99.90;;;;;;4885153;29;20562;-83
2021/01/29 04:14:00;;;;;;;2.72;2.53;;;-1.50;99.90;;;;;;4885910;29;20408;-88
2021/01/29 04:16:36;;;;;;;2.38;2.17;;;-1.40;99.90;;;;;;4868398;29;20464;-84
2021/01/29 04:19:12;;;;;;;2.47;2.28;;;-1.30;99.90;;;;;;4878675;29;20785;-85
2021/01/29 04:21:59;;;;;;;4.15;2.40;;;-1.40;99.90;;;;;;4877015;29;20403;-84
2021/01/29 04:24:39;;;;;;;2.45;2.25;;;-1.40;99.90;;;;;;4883380;29;21263;-83
2021/01/29 04:27:16;;;;;;;3.40;2.65;;;-1.40;99.90;;;;;;4862592;29;20420;-82
2021/01/29 04:30:02;;;;;;;4.72;2.78;;;-1.50;99.90;;;;;;4884012;29;20413;-81
2021/01/29 04:32:32;;;;;;;2.80;2.60;;;-1.60;99.90;;;;;;4895629;29;20425;-80
2021/01/29 04:34:58;;;;;;;3.10;2.80;;;-1.60;99.90;;;;;;4880589;29;20463;-83
2021/01/29 04:37:26;;;;;;;2.40;2.20;;;-1.60;99.90;;;;;;4866472;29;20932;-80
2021/01/29 04:39:53;;;;;;;2.80;2.60;;;-1.70;99.90;;;;;;4881398;29;20498;-87
2021/01/29 04:42:29;;;;;;;2.78;2.58;;;-1.60;99.90;;;;;;4881179;29;20466;-83
2021/01/29 04:45:03;;;;;;;3.47;3.17;;;-1.60;99.90;;;;;;4862763;29;20429;-84
2021/01/29 04:47:36;;;;;;;8.30;6.57;;;-1.60;99.90;;;;;;4883873;29;20401;-87
2021/01/29 04:50:26;;;;;;;6.10;5.50;;;-1.50;99.90;;;;;;4882548;29;20415;-82
2021/01/29 04:53:14;;;;;;;4.68;4.18;;;-1.60;99.90;;;;;;4866643;29;20492;-86
2021/01/29 04:55:39;;;;;;;4.68;3.70;;;-1.70;99.90;;;;;;4867071;29;20424;-88
2021/01/29 04:58:18;;;;;;;3.78;3.10;;;-1.60;99.90;;;;;;4863310;29;20459;-88
2021/01/29 05:01:24;;;;;;;2.70;2.50;;;-1.70;99.90;;;;;;4850078;29;20414;-85
2021/01/29 05:04:42;;;;;;;3.25;2.95;;;-1.70;99.90;;;;;;4860167;29;20420;-81
2021/01/29 05:07:56;;;;;;;5.22;4.20;;;-1.70;99.90;;;;;;4872276;29;20405;-81
2021/01/29 05:10:46;;;;;;;3.63;3.30;;;-1.80;99.90;;;;;;4886134;29;21300;-81
2021/01/29 05:13:34;;;;;;;3.80;3.30;;;-1.80;99.90;;;;;;4864597;29;20424;-82
2021/01/29 05:16:37;;;;;;;3.70;2.67;;;-1.80;99.90;;;;;;4874842;29;20936;-80
2021/01/29 05:19:17;;;;;;;2.67;2.37;;;-1.80;99.90;;;;;;4870651;29;20431;-79
2021/01/29 05:22:20;;;;;;;2.75;2.55;;;-1.70;99.90;;;;;;4900033;29;20423;-81
2021/01/29 05:25:11;;;;;;;3.38;2.83;;;-1.60;99.90;;;;;;4883017;29;20428;-83
2021/01/29 05:27:41;;;;;;;5.75;2.58;;;-1.60;99.90;;;;;;4886433;29;20412;-82
2021/01/29 05:30:37;;;;;;;3.55;2.60;;;-1.60;99.90;;;;;;4846868;29;20433;-84
2021/01/29 05:33:35;;;;;;;3.40;2.17;;;-1.60;99.90;;;;;;4878099;29;20536;-81
2021/01/29 05:36:34;;;;;;;2.60;2.40;;;-1.60;99.90;;;;;;4867993;29;20424;-78
2021/01/29 05:39:15;;;;;;;2.72;2.53;;;-1.60;99.90;;;;;;4880617;29;20610;-81
2021/01/29 05:41:59;;;;;;;4.32;3.85;;;-1.70;99.90;;;;;;4865072;29;20512;-82
2021/01/29 05:44:46;;;;;;;4.40;3.40;;;-1.80;99.90;;;;;;4870524;29;20411;-82
2021/01/29 05:47:42;;;;;;;3.45;3.00;;;-1.80;99.90;;;;;;4875326;29;20424;-84
2021/01/29 05:50:20;;;;;;;4.68;3.00;;;-1.90;99.90;;;;;;4849827;29;20468;-83
2021/01/29 05:53:19;;;;;;;3.08;2.78;;;-1.90;99.90;;;;;;4888115;29;20453;-82
2021/01/29 05:55:57;;;;;;;2.92;2.60;;;-1.90;99.90;;;;;;4878775;29;20420;-81
2021/01/29 05:58:39;;;;;;;2.67;2.47;;;-1.90;99.90;;;;;;4869873;29;20786;-81
2021/01/29 06:01:29;;;;;;;3.10;2.80;;;-1.90;99.90;;;;;;4867305;29;20422;-83
2021/01/29 06:04:13;;;;;;;2.95;2.47;;;-1.90;99.90;;;;;;4871931;29;20441;-81
2021/01/29 06:06:45;;;;;;;2.92;2.72;;;-1.90;99.90;;;;;;4880606;29;20402;-79
2021/01/29 06:09:35;;;;;;;2.63;2.42;;;-1.90;99.90;;;;;;4855906;29;20412;-81
2021/01/29 06:12:31;;;;;;;3.60;2.65;;;-2.10;99.90;;;;;;4875180;29;20408;-82
2021/01/29 06:15:19;;;;;;;2.90;2.63;;;-2.10;99.90;;;;;;4862707;29;20620;-82
2021/01/29 06:18:10;;;;;;;3.10;2.80;;;-2.20;99.90;;;;;;4868621;29;20396;-80
2021/01/29 06:20:52;;;;;;;3.65;2.80;;;-2.20;99.90;;;;;;4888128;29;20425;-86
2021/01/29 06:23:47;;;;;;;2.97;2.43;;;-2.30;99.90;;;;;;4853151;29;20402;-83
2021/01/29 06:26:43;;;;;;;2.95;2.70;;;-2.50;99.90;;;;;;4877634;29;20488;-82
2021/01/29 06:29:28;;;;;;;4.30;2.90;;;-2.60;99.90;;;;;;4849304;29;20414;-81
2021/01/29 06:32:31;;;;;;;3.27;2.70;;;-2.60;99.90;;;;;;4866555;29;20460;-82
2021/01/29 06:35:11;;;;;;;3.22;2.90;;;-2.60;99.90;;;;;;4894236;29;20401;-82
2021/01/29 06:38:14;;;;;;;3.30;3.00;;;-2.60;99.90;;;;;;4856938;29;20972;-83
2021/01/29 06:40:49;;;;;;;4.10;3.58;;;-2.70;99.90;;;;;;4891406;29;20392;-82
2021/01/29 06:43:27;;;;;;;3.03;2.83;;;-2.70;99.90;;;;;;4894456;29;20424;-82
2021/01/29 06:46:23;;;;;;;4.03;3.17;;;-2.70;99.90;;;;;;4872951;29;20466;-82
2021/01/29 06:49:26;;;;;;;5.03;4.20;;;-2.70;99.90;;;;;;4874382;29;20472;-81
2021/01/29 06:52:20;;;;;;;4.30;3.90;;;-2.90;99.90;;;;;;4884874;29;20492;-83
2021/01/29 06:55:01;;;;;;;4.45;4.05;;;-2.90;99.90;;;;;;4870589;29;20409;-83
2021/01/29 06:57:58;;;;;;;4.25;3.80;;;-2.90;99.90;;;;;;4884296;29;20798;-84
2021/01/29 07:00:50;;;;;;;4.45;3.67;;;-2.90;99.90;;;;;;4882924;29;20412;-83
2021/01/29 07:03:29;;;;;;;4.35;3.65;;;-2.90;99.90;;;;;;4869579;29;20575;-86
2021/01/29 07:06:21;;;;;;;4.35;3.95;;;-2.90;99.90;;;;;;4873194;29;20428;-82
2021/01/29 07:09:01;;;;;;;3.88;3.47;;;-2.90;99.90;;;;;;4884079;29;20433;-82
2021/01/29 07:11:45;;;;;;;4.72;3.30;;;-3.00;99.90;;;;;;4854605;29;20411;-83
2021/01/29 07:14:14;;;;;;;3.83;3.53;;;-3.00;99.90;;;;;;4899825;29;20412;-81
2021/01/29 07:16:56;;;;;;;3.75;3.42;;;-3.00;99.90;;;;;;4872436;29;20414;-80
2021/01/29 07:19:43;;;;;;;5.50;3.58;;;-3.00;99.90;;;;;;4854577;29;20417;-81
2021/01/29 07:22:29;;;;;;;4.50;4.00;;;-3.10;99.90;;;;;;4874907;29;20457;-80
2021/01/29 07:25:00;;;;;;;3.70;3.38;;;-3.10;99.90;;;;;;4864090;29;20414;-79
2021/01/29 07:27:38;;;;;;;4.30;3.90;;;-3.10;99.90;;;;;;4849897;29;20400;-79
2021/01/29 07:30:18;;;;;;;4.30;3.90;;;-3.10;99.90;;;;;;4864808;29;20407;-80
2021/01/29 07:32:50;;;;;;;6.37;4.77;;;-3.10;99.90;;;;;;4857380;29;20420;-81
2021/01/29 07:35:28;;;;;;;6.07;4.53;;;-3.10;99.90;;;;;;4877365;29;20425;-83
2021/01/29 07:38:06;;;;;;;5.07;4.55;;;-3.00;99.90;;;;;;4870757;29;20429;-86
2021/01/29 07:40:56;;;;;;;7.47;4.97;;;-3.00;99.90;;;;;;4904181;29;20466;-88
2021/01/29 07:43:50;;;;;;;5.60;4.82;;;-2.90;99.90;;;;;;4889316;29;20402;-85
2021/01/29 07:46:32;;;;;;;6.82;4.60;;;-2.90;99.90;;;;;;4889744;29;20422;-84
2021/01/29 07:49:37;;;;;;;6.10;5.10;;;-2.80;99.90;;;;;;4906811;29;20409;-86
2021/01/29 07:52:15;;;;;;;6.88;5.30;;;-2.80;99.90;;;;;;4906195;29;20409;-89
2021/01/29 07:55:02;;;;;;;5.43;4.78;;;-2.70;99.90;;;;;;4881627;29;20446;-87
2021/01/29 07:57:30;;;;;;;6.15;4.68;;;-2.70;99.90;;;;;;4910918;29;20410;-88
2021/01/29 08:00:06;;;;;;;4.87;3.87;;;-2.60;99.90;;;;;;4894714;29;20382;-89
2021/01/29 08:03:02;;;;;;;5.47;4.17;;;-2.50;99.90;;;;;;4893802;29;20431;-86
2021/01/29 08:05:29;;;;;;;5.03;4.43;;;-2.50;99.90;;;;;;4910976;29;20426;-86
2021/01/29 08:08:06;;;;;;;5.60;4.28;;;-2.50;99.90;;;;;;4873548;29;20420;-88
2021/01/29 08:10:39;;;;;;;5.07;3.75;;;-2.40;99.90;;;;;;4877574;29;20398;-90
2021/01/29 08:13:42;;;;;;;3.67;3.30;;;-2.40;99.90;;;;;;4878364;29;20458;-87
2021/01/29 08:16:17;;;;;;;3.83;3.50;;;-2.30;99.90;;;;;;4891908;29;20406;-83
2021/01/29 08:18:58;;;;;;;3.40;3.10;;;-2.20;99.90;;;;;;4908452;29;20416;-83
2021/01/29 08:21:46;;;;;;;4.13;3.17;;;-2.00;99.90;;;;;;4907304;29;20462;-87
2021/01/29 08:25:01;;;;;;;3.00;2.80;;;-2.10;99.90;;;;;;4907615;29;20434;-90
2021/01/29 08:28:04;;;;;;;3.13;2.83;;;-2.00;99.90;;;;;;4872961;29;20411;-83
2021/01/29 08:31:07;;;;;;;3.40;3.10;;;-1.90;99.90;;;;;;4889488;29;20434;-87
2021/01/29 08:34:29;;;;;;;3.17;2.88;;;-1.80;99.90;;;;;;4901379;29;20474;-84
2021/01/29 08:37:26;;;;;;;3.30;2.80;;;-1.70;99.90;;;;;;4906192;29;20477;-83
2021/01/29 08:39:58;;;;;;;3.30;3.00;;;-1.70;99.90;;;;;;4883402;29;20427;-83
2021/01/29 08:42:47;;;;;;;2.75;2.55;;;-1.70;99.90;;;;;;4895743;29;20386;-86
2021/01/29 08:45:43;;;;;;;2.78;2.47;;;-1.60;99.90;;;;;;4878896;29;20502;-85
2021/01/29 08:48:30;;;;;;;4.10;2.40;;;-1.50;99.90;;;;;;4876992;29;20402;-86
2021/01/29 08:51:23;;;;;;;2.58;2.38;;;-1.40;99.90;;;;;;4909779;29;20406;-90
2021/01/29 08:54:16;;;;;;;2.60;2.40;;;-1.40;99.90;;;;;;4888690;29;20494;-89
2021/01/29 08:57:15;;;;;;;2.70;2.50;;;-1.30;99.90;;;;;;4893649;29;20433;-90
2021/01/29 08:59:41;;;;;;;3.10;2.75;;;-1.20;99.90;;;;;;4908813;29;20411;-89
2021/01/29 09:02:32;;;;;;;3.42;2.90;;;-1.20;99.90;;;;;;4893806;29;20394;-87
2021/01/29 09:05:07;;;;;;;2.90;2.70;;;-1.10;99.90;;;;;;4894960;29;20463;-90
2021/01/29 09:07:39;;;;;;;2.95;2.58;;;-1.00;99.90;;;;;;4878966;29;20413;-87
2021/01/29 09:10:22;;;;;;;3.55;2.80;;;-0.90;99.90;;;;;;4873498;29;20405;-90
2021/01/29 09:12:58;;;;;;;5.47;2.30;;;-0.90;99.90;;;;;;4893270;29;20410;-87
2021/01/29 09:15:57;;;;;;;2.97;2.25;;;-0.80;99.90;;;;;;4858557;29;20414;-86
2021/01/29 09:18:30;;;;;;;2.38;2.17;;;-0.80;99.90;;;;;;4902993;29;20406;-88
2021/01/29 09:21:05;;;;;;;2.20;2.00;;;-0.70;99.90;;;;;;4907811;29;20435;-84
2021/01/29 09:23:56;;;;;;;2.92;2.63;;;-0.70;99.90;;;;;;4885865;29;20381;-88
2021/01/29 09:26:34;;;;;;;2.80;2.30;;;-0.60;99.90;;;;;;4883010;29;20420;-87
2021/01/29 09:29:23;;;;;;;5.97;2.80;;;-0.50;99.90;;;;;;4872802;29;20425;-89
2021/01/29 09:31:56;;;;;;;3.13;2.60;;;-0.30;99.90;;;;;;4947560;23;20420;-89
2021/01/29 09:34:26;;;;;;;3.20;2.58;;;-0.40;99.90;;;;;;4917196;29;20413;-89
2021/01/29 09:36:53;;;;;;;3.03;2.70;;;-0.40;99.90;;;;;;4900254;29;20420;-89
2021/01/29 09:39:44;;;;;;;3.20;2.90;;;-0.30;99.90;;;;;;4904728;29;20389;-89
2021/01/29 09:42:11;;;;;;;4.30;2.97;;;-0.30;99.90;;;;;;4900500;29;20513;-91
2021/01/29 09:44:48;;;;;;;5.70;3.45;;;-0.20;99.90;;;;;;4886093;29;21093;-87
2021/01/29 09:47:19;;;;;;;4.13;3.00;;;-0.20;99.90;;;;;;4885828;29;20415;-91
2021/01/29 09:49:45;;;;;;;3.70;3.00;;;-0.20;99.90;;;;;;4916404;29;20398;-90
2021/01/29 09:52:27;;;;;;;4.15;3.03;;;-0.20;99.90;;;;;;4887490;29;20365;-89
2021/01/29 09:55:04;;;;;;;3.97;2.93;;;-0.20;99.90;;;;;;4898645;29;20385;-88
2021/01/29 09:57:37;;;;;;;4.35;2.95;;;-0.20;99.90;;;;;;4886206;29;20398;-89
2021/01/29 10:00:11;;;;;;;3.25;2.95;;;-0.20;99.90;;;;;;4913776;29;20411;-89
2021/01/29 10:02:59;;;;;;;3.47;2.92;;;-0.30;99.90;;;;;;4903194;29;20399;-91
2021/01/29 10:05:28;;;;;;;3.08;2.78;;;-0.30;99.90;;;;;;4895648;29;20442;-90
2021/01/29 10:08:22;;;;;;;3.63;2.70;;;-0.30;99.90;;;;;;4869928;29;20395;-91
2021/01/29 10:11:10;;;;;;;2.97;2.67;;;-0.20;99.90;;;;;;4881004;29;20502;-91
2021/01/29 10:14:13;;;;;;;2.90;2.60;;;-0.20;99.90;;;;;;4903226;29;20406;-89
2021/01/29 10:16:53;;;;;;;2.67;2.45;;;-0.10;99.90;;;;;;4912787;29;20421;-87
2021/01/29 10:19:21;;;;;;;2.63;2.42;;;-0.10;99.90;;;;;;4898619;29;20409;-86
2021/01/29 10:21:58;;;;;;;3.03;2.72;;;0.00;99.90;;;;;;4922946;29;20407;-88
2021/01/29 10:24:54;;;;;;;3.42;2.70;;;0.00;99.90;;;;;;4918097;29;20996;-88
2021/01/29 10:27:57;;;;;;;3.50;2.85;;;0.00;99.90;;;;;;4894355;29;20708;-87
2021/01/29 10:30:44;;;;;;;2.70;2.50;;;0.00;99.90;;;;;;4892868;29;20407;-89
2021/01/29 10:33:25;;;;;;;3.00;2.25;;;0.10;99.90;;;;;;4898830;29;20423;-89
2021/01/29 10:36:04;;;;;;;3.20;2.60;;;0.10;99.90;;;;;;4886596;29;20391;-89
2021/01/29 10:39:00;;;;;;;3.10;2.53;;;0.20;99.90;;;;;;4885388;29;20387;-90
2021/01/29 10:41:47;;;;;;;7.15;2.72;;;0.20;99.90;;;;;;4904951;29;20407;-90
2021/01/29 10:44:29;;;;;;;3.63;2.25;;;0.30;99.90;;;;;;4902524;29;20439;-90
2021/01/29 10:47:19;;;;;;;4.00;2.60;;;0.30;99.90;;;;;;4897142;29;20474;-86
2021/01/29 10:50:05;;;;;;;3.95;2.47;;;0.40;99.90;;;;;;4920259;29;20439;-84
2021/01/29 10:52:50;;;;;;;2.38;2.13;;;0.60;99.90;;;;;;4897790;29;20431;-85
2021/01/29 10:55:32;;;;;;;2.78;2.38;;;0.70;99.90;;;;;;4898027;29;20429;-84
2021/01/29 10:58:20;;;;;;;2.85;2.40;;;0.80;99.90;;;;;;4883653;29;20399;-86
2021/01/29 11:00:57;;;;;;;2.90;2.40;;;1.00;99.90;;;;;;4899830;29;20411;-84
2021/01/29 11:03:46;;;;;;;3.35;2.80;;;0.90;99.90;;;;;;4911778;29;20443;-81
2021/01/29 11:06:12;;;;;;;3.45;2.72;;;0.90;99.90;;;;;;4867665;29;20406;-80
2021/01/29 11:08:40;;;;;;;4.70;3.50;;;0.90;99.90;;;;;;4883910;29;20390;-83
2021/01/29 11:11:16;;;;;;;4.30;3.22;;;1.00;99.90;;;;;;4871385;29;20391;-84
2021/01/29 11:14:14;;;;;;;4.07;3.60;;;1.10;99.90;;;;;;4898300;29;20776;-82
2021/01/29 11:16:45;;;;;;;4.93;3.50;;;1.10;99.90;;;;;;4893709;29;20411;-80
2021/01/29 11:19:19;;;;;;;4.45;3.38;;;1.10;99.90;;;;;;4882976;29;20398;-80
2021/01/29 11:21:51;;;;;;;4.38;3.00;;;1.20;99.90;;;;;;4882712;29;20404;-80
2021/01/29 11:24:26;;;;;;;3.40;2.80;;;1.30;99.90;;;;;;4893387;29;20923;-79
2021/01/29 11:27:14;;;;;;;3.65;2.80;;;1.50;99.90;;;;;;4895428;29;20946;-78
2021/01/29 11:29:51;;;;;;;3.30;2.72;;;1.60;99.90;;;;;;4907869;29;20523;-80
2021/01/29 11:32:21;;;;;;;3.10;2.50;;;1.60;99.90;;;;;;4880947;29;20932;-80
2021/01/29 11:34:47;;;;;;;3.55;2.60;;;1.70;99.90;;;;;;4865094;29;20414;-78
2021/01/29 11:37:21;;;;;;;2.63;2.42;;;1.90;99.90;;;;;;4861646;29;20405;-78
2021/01/29 11:39:56;;;;;;;3.00;2.70;;;2.00;99.90;;;;;;4877340;29;20470;-78
2021/01/29 11:42:34;;;;;;;4.35;2.80;;;2.10;99.90;;;;;;4891901;29;20416;-79
2021/01/29 11:45:07;;;;;;;5.38;2.80;;;2.30;99.90;;;;;;4892592;29;20422;-80
2021/01/29 11:47:40;;;;;;;4.63;2.75;;;2.40;99.90;;;;;;4862050;29;20416;-79
2021/01/29 11:50:16;;;;;;;2.60;2.40;;;2.40;99.90;;;;;;4862877;29;20423;-80
2021/01/29 11:53:07;;;;;;;2.97;2.67;;;2.50;99.90;;;;;;4864554;29;20929;-80
2021/01/29 11:56:04;;;;;;;4.72;3.20;;;2.50;99.90;;;;;;4880368;29;20444;-79
2021/01/29 11:58:39;;;;;;;3.17;2.70;;;2.50;99.90;;;;;;4887444;29;20414;-80
2021/01/29 12:01:17;;;;;;;3.07;2.77;;;2.50;99.90;;;;;;4890967;29;20445;-79
2021/01/29 12:03:54;;;;;;;3.47;2.90;;;2.40;99.90;;;;;;4894425;29;20940;-80
2021/01/29 12:06:30;;;;;;;4.38;2.95;;;2.40;99.90;;;;;;4904181;29;20459;-79
2021/01/29 12:09:07;;;;;;;2.83;2.63;;;2.20;99.90;;;;;;4863227;29;20824;-79
2021/01/29 12:11:57;;;;;;;3.42;2.95;;;2.10;99.90;;;;;;4893186;29;20396;-82
2021/01/29 12:14:54;;;;;;;3.35;3.05;;;2.10;99.90;;;;;;4876324;29;20416;-79
2021/01/29 12:17:23;;;;;;;3.40;3.08;;;2.10;99.90;;;;;;4843259;29;20408;-80
2021/01/29 12:19:48;;;;;;;4.63;3.17;;;2.10;99.90;;;;;;4878298;29;20411;-80
2021/01/29 12:22:28;;;;;;;5.35;3.70;;;2.10;99.90;;;;;;4896224;29;20406;-80
2021/01/29 12:24:58;;;;;;;4.80;3.30;;;2.20;99.90;;;;;;4877420;29;20589;-81
2021/01/29 12:27:32;;;;;;;3.67;3.37;;;2.20;99.90;;;;;;4877330;29;20397;-79
2021/01/29 12:30:18;;;;;;;4.37;3.43;;;2.20;99.90;;;;;;4892509;29;20435;-79
2021/01/29 12:32:52;;;;;;;4.88;3.92;;;2.20;99.90;;;;;;4892622;29;20795;-79
2021/01/29 12:35:36;;;;;;;4.47;3.60;;;2.20;99.90;;;;;;4873551;29;20415;-79
2021/01/29 12:38:25;;;;;;;4.57;3.70;;;2.10;99.90;;;;;;4906764;29;20420;-81
2021/01/29 12:41:08;;;;;;;5.22;3.38;;;2.00;99.90;;;;;;4890920;29;20574;-79
2021/01/29 12:43:39;;;;;;;4.10;3.60;;;2.00;99.90;;;;;;4861966;29;20404;-81
2021/01/29 12:46:12;;;;;;;4.53;3.83;;;1.90;99.90;;;;;;4906542;29;20407;-80
2021/01/29 12:48:50;;;;;;;5.88;3.97;;;1.90;99.90;;;;;;4877165;29;20587;-80
2021/01/29 12:51:22;;;;;;;7.50;4.60;;;2.00;99.90;;;;;;4852411;29;20415;-80
2021/01/29 12:54:01;;;;;;;5.17;3.60;;;2.10;99.90;;;;;;4877031;29;20415;-79
2021/01/29 12:56:47;;;;;;;4.50;3.40;;;2.10;99.90;;;;;;4878430;29;20449;-81
2021/01/29 12:59:12;;;;;;;5.15;3.65;;;2.10;99.90;;;;;;4859954;29;20418;-78
2021/01/29 13:01:59;;;;;;;4.85;3.13;;;2.10;99.90;;;;;;4862002;29;20898;-79
2021/01/29 13:04:32;;;;;;;4.22;3.45;;;2.10;99.90;;;;;;4865945;29;20434;-81
2021/01/29 13:07:15;;;;;;;5.63;3.40;;;2.10;99.90;;;;;;4858216;29;20412;-79
2021/01/29 13:09:53;;;;;;;4.07;3.13;;;2.10;99.90;;;;;;4892452;29;20782;-79
2021/01/29 13:12:37;;;;;;;4.55;3.10;;;2.10;99.90;;;;;;4891969;29;20411;-80
2021/01/29 13:15:11;;;;;;;5.18;3.47;;;2.10;99.90;;;;;;4884659;29;20469;-80
2021/01/29 13:17:41;;;;;;;4.40;3.63;;;2.00;99.90;;;;;;4876099;29;21636;-79
2021/01/29 13:20:09;;;;;;;4.65;3.60;;;2.10;99.90;;;;;;4890760;29;20409;-79
2021/01/29 13:22:55;;;;;;;5.70;3.80;;;2.10;99.90;;;;;;4881160;29;20397;-79
2021/01/29 13:25:30;;;;;;;3.53;3.22;;;2.00;99.90;;;;;;4861723;29;20419;-79
2021/01/29 13:28:13;;;;;;;83.72;44.72;;;2.00;99.90;;;;;;4894784;29;21139;-81
2021/01/29 13:30:40;;;;;;;7.03;4.00;;;1.90;99.90;;;;;;4858366;29;20422;-79
2021/01/29 13:33:14;;;;;;;5.23;4.17;;;1.90;99.90;;;;;;4875714;29;20431;-79
2021/01/29 13:35:40;;;;;;;8.15;5.00;;;1.80;99.90;;;;;;4870194;29;20399;-79
2021/01/29 13:38:13;;;;;;;4.35;3.95;;;1.90;99.90;;;;;;4893206;29;20505;-79
2021/01/29 13:40:39;;;;;;;6.97;3.60;;;1.90;99.90;;;;;;4876928;29;20422;-79
2021/01/29 13:43:13;;;;;;;3.20;2.90;;;1.90;99.90;;;;;;4881051;29;20397;-78
2021/01/29 13:45:39;;;;;;;3.95;2.95;;;1.80;99.90;;;;;;4891410;29;20423;-89
2021/01/29 13:48:12;;;;;;;7.15;4.35;;;1.80;99.90;;;;;;4890606;29;20495;-85
2021/01/29 13:50:40;;;;;;;3.97;3.38;;;1.70;99.90;;;;;;4880081;29;20450;-85
2021/01/29 13:53:08;;;;;;;7.82;3.95;;;1.80;99.90;;;;;;4906888;29;20458;-86
2021/01/29 13:55:48;;;;;;;3.85;2.83;;;1.90;99.90;;;;;;4880250;29;20466;-84
2021/01/29 13:58:49;;;;;;;2.80;2.58;;;1.70;99.90;;;;;;4895159;29;20403;-88
2021/01/29 14:01:21;;;;;;;3.70;2.40;;;1.70;99.90;;;;;;4871836;29;20415;-83
2021/01/29 14:04:08;;;;;;;4.60;2.90;;;1.70;99.90;;;;;;4894556;29;20403;-81
2021/01/29 14:06:35;;;;;;;3.30;2.77;;;1.70;99.90;;;;;;4904841;29;20676;-81
2021/01/29 14:09:04;;;;;;;4.32;3.30;;;1.70;99.90;;;;;;4880615;29;20383;-82
2021/01/29 14:11:59;;;;;;;12.18;7.35;;;1.60;99.90;;;;;;4864045;29;20391;-84